createdAt,value
2018-07-10T00:02:42.620Z,93.70
2018-07-10T00:07:38.481Z,93.30
2018-07-10T00:10:41.338Z,93.60
2018-07-10T00:13:14.486Z,93.70
2018-07-10T00:15:47.133Z,92.80
2018-07-10T00:18:19.993Z,94.00
2018-07-10T00:20:51.605Z,94.70
2018-07-10T00:23:25.536Z,95.50
2018-07-10T00:25:58.333Z,94.90
2018-07-10T00:28:30.046Z,94.30
2018-07-10T00:31:01.877Z,93.30
2018-07-10T00:33:33.299Z,92.40
2018-07-10T00:36:06.102Z,92.50
2018-07-10T00:38:53.603Z,91.90
2018-07-10T00:41:33.630Z,90.70
2018-07-10T00:44:07.675Z,90.80
2018-07-10T00:46:41.498Z,91.80
2018-07-10T00:49:13.419Z,91.90
2018-07-10T00:51:45.947Z,92.30
2018-07-10T00:54:18.546Z,93.30
2018-07-10T00:56:50.081Z,94.10
2018-07-10T00:59:23.741Z,95.10
2018-07-10T01:01:57.902Z,96.80
2018-07-10T01:04:30.173Z,97.60
2018-07-10T01:09:34.702Z,97.00
2018-07-10T01:12:06.200Z,96.30
2018-07-10T01:14:38.942Z,96.40
2018-07-10T01:17:10.434Z,97.30
2018-07-10T01:19:42.107Z,97.60
2018-07-10T01:24:46.753Z,97.50
2018-07-10T01:27:19.384Z,97.80
2018-07-10T01:29:52.245Z,97.70
2018-07-10T01:32:23.808Z,97.10
2018-07-10T01:34:58.009Z,96.70
2018-07-10T01:37:29.450Z,96.40
2018-07-10T01:40:04.457Z,96.30
2018-07-10T01:42:37.469Z,96.40
2018-07-10T01:45:10.126Z,96.90
2018-07-10T01:47:45.834Z,97.50
2018-07-10T01:50:20.090Z,97.40
2018-07-10T01:52:52.777Z,97.20
2018-07-10T01:55:24.262Z,97.30
2018-07-10T01:57:58.633Z,97.30
2018-07-10T02:00:44.004Z,96.60
2018-07-10T02:03:16.387Z,96.20
2018-07-10T02:05:47.952Z,96.00
2018-07-10T02:08:21.653Z,96.40
2018-07-10T02:10:53.174Z,96.30
2018-07-10T02:13:26.771Z,96.00
2018-07-10T02:15:58.475Z,96.30
2018-07-10T02:18:30.854Z,96.30
2018-07-10T02:21:07.729Z,96.10
2018-07-10T02:23:44.588Z,96.30
2018-07-10T02:26:23.134Z,95.80
2018-07-10T02:28:56.569Z,95.90
2018-07-10T02:31:28.577Z,96.10
2018-07-10T02:34:01.572Z,96.20
2018-07-10T02:36:34.226Z,95.90
2018-07-10T02:39:07.063Z,95.40
2018-07-10T02:41:39.828Z,95.00
2018-07-10T02:44:11.281Z,94.80
2018-07-10T02:46:43.954Z,95.10
2018-07-10T02:49:22.729Z,96.50
2018-07-10T02:52:04.809Z,96.80
2018-07-10T02:54:42.450Z,96.80
2018-07-10T02:57:16.417Z,98.80
2018-07-10T02:59:48.723Z,99.90
2018-07-10T03:02:26.113Z,99.90
2018-07-10T03:07:37.826Z,99.90
2018-07-10T03:10:10.703Z,99.90
2018-07-10T03:12:43.927Z,99.20
2018-07-10T03:15:17.943Z,98.90
2018-07-10T03:17:51.617Z,98.40
2018-07-10T03:20:23.377Z,97.40
2018-07-10T03:27:59.260Z,95.10
2018-07-10T03:30:31.981Z,94.90
2018-07-10T03:33:03.665Z,94.90
2018-07-10T03:35:35.379Z,94.90
2018-07-10T03:38:08.294Z,95.60
2018-07-10T03:40:40.419Z,96.50
2018-07-10T03:43:13.166Z,97.00
2018-07-10T03:45:46.207Z,97.20
2018-07-10T03:50:53.824Z,98.10
2018-07-10T03:53:27.606Z,98.20
2018-07-10T03:55:59.493Z,99.30
2018-07-10T03:58:32.613Z,99.60
2018-07-10T04:06:09.550Z,99.50
2018-07-10T04:08:41.361Z,98.50
2018-07-10T04:11:15.051Z,97.80
2018-07-10T04:13:46.826Z,97.80
2018-07-10T04:18:52.164Z,96.00
2018-07-10T04:21:28.790Z,95.80
2018-07-10T04:24:18.389Z,95.90
2018-07-10T04:27:33.085Z,95.20
2018-07-10T04:30:20.305Z,94.70
2018-07-10T04:32:51.794Z,94.80
2018-07-10T04:35:30.064Z,94.10
2018-07-10T04:38:02.129Z,97.90
2018-07-10T04:40:37.596Z,95.00
2018-07-10T04:43:18.498Z,97.20
2018-07-10T04:49:06.725Z,98.60
2018-07-10T04:51:49.776Z,98.80
2018-07-10T04:54:36.378Z,99.40
2018-07-10T04:57:21.914Z,99.90
2018-07-10T04:59:55.161Z,99.90
2018-07-10T05:02:27.992Z,99.90
2018-07-10T05:04:59.891Z,99.60
2018-07-10T05:07:33.758Z,99.50
2018-07-10T05:10:06.547Z,99.60
2018-07-10T05:12:40.282Z,99.40
2018-07-10T05:17:51.976Z,99.20
2018-07-10T05:20:26.925Z,99.60
2018-07-10T05:25:31.812Z,98.30
2018-07-10T05:28:04.867Z,97.90
2018-07-10T05:33:13.637Z,97.90
2018-07-10T05:35:46.153Z,97.20
2018-07-10T05:38:26.106Z,96.30
2018-07-10T05:41:00.426Z,95.00
2018-07-10T05:43:33.650Z,94.40
2018-07-10T05:46:06.487Z,94.60
2018-07-10T05:48:40.470Z,94.80
2018-07-10T05:51:13.642Z,96.30
2018-07-10T05:53:46.133Z,97.80
2018-07-10T05:56:17.633Z,97.40
2018-07-10T05:58:49.175Z,96.90
2018-07-10T06:01:21.902Z,97.30
2018-07-10T06:03:54.686Z,98.70
2018-07-10T06:06:28.665Z,98.80
2018-07-10T06:09:01.103Z,99.90
2018-07-10T06:11:33.975Z,99.90
2018-07-10T06:14:06.636Z,99.90
2018-07-10T06:16:42.485Z,99.90
2018-07-10T06:19:14.141Z,99.90
2018-07-10T06:21:50.845Z,99.30
2018-07-10T06:24:28.819Z,99.60
2018-07-10T06:27:04.278Z,99.70
2018-07-10T06:29:49.667Z,98.90
2018-07-10T06:32:24.297Z,98.20
2018-07-10T06:35:14.098Z,96.40
2018-07-10T06:37:48.010Z,96.60
2018-07-10T06:40:23.311Z,95.70
2018-07-10T06:43:08.938Z,95.10
2018-07-10T06:45:40.477Z,94.50
2018-07-10T06:48:15.602Z,93.70
2018-07-10T06:50:47.015Z,93.00
2018-07-10T06:53:24.259Z,92.90
2018-07-10T06:56:00.278Z,92.80
2018-07-10T07:01:07.584Z,91.40
2018-07-10T07:03:43.019Z,90.40
2018-07-10T07:06:14.609Z,86.80
2018-07-10T07:08:47.241Z,81.50
2018-07-10T07:11:20.072Z,80.40
2018-07-10T07:13:52.512Z,87.40
2018-07-10T07:16:24.699Z,89.20
2018-07-10T07:18:56.252Z,90.00
2018-07-10T07:21:30.349Z,91.20
2018-07-10T07:24:03.299Z,91.50
2018-07-10T07:29:06.871Z,88.40
2018-07-10T07:31:39.567Z,90.10
2018-07-10T07:34:11.170Z,87.00
2018-07-10T07:36:42.557Z,86.70
2018-07-10T07:39:15.003Z,87.00
2018-07-10T07:41:46.858Z,85.90
2018-07-10T07:44:19.536Z,82.90
2018-07-10T07:46:52.203Z,83.10
2018-07-10T07:49:24.876Z,80.60
2018-07-10T07:51:58.026Z,80.00
2018-07-10T07:54:30.271Z,79.20
2018-07-10T07:57:03.496Z,66.90
2018-07-10T07:59:35.246Z,67.70
2018-07-10T08:02:09.450Z,66.00
2018-07-10T08:04:41.127Z,64.10
2018-07-10T08:07:13.941Z,70.50
2018-07-10T08:09:46.883Z,73.50
2018-07-10T08:12:20.183Z,68.80
2018-07-10T08:14:55.084Z,69.10
2018-07-10T08:17:28.282Z,66.50
2018-07-10T08:20:01.089Z,65.90
2018-07-10T08:22:34.106Z,67.80
2018-07-10T08:25:07.462Z,65.80
2018-07-10T08:27:39.686Z,69.30
2018-07-10T08:30:12.447Z,68.20
2018-07-10T08:32:45.141Z,68.10
2018-07-10T08:35:20.466Z,67.50
2018-07-10T08:37:54.055Z,68.30
2018-07-10T08:40:26.789Z,64.10
2018-07-10T08:45:30.763Z,60.20
2018-07-10T08:48:04.512Z,59.60
2018-07-10T08:50:37.368Z,59.70
2018-07-10T08:53:09.968Z,58.10
2018-07-10T08:55:42.814Z,57.00
2018-07-10T08:58:14.424Z,56.60
2018-07-10T09:00:48.413Z,58.60
2018-07-10T09:03:21.190Z,59.10
2018-07-10T09:05:54.026Z,59.50
2018-07-10T09:08:25.586Z,57.30
2018-07-10T09:10:58.588Z,57.20
2018-07-10T09:13:31.338Z,55.70
2018-07-10T09:16:04.185Z,56.10
2018-07-10T09:18:36.294Z,54.70
2018-07-10T09:21:08.000Z,56.50
2018-07-10T09:23:41.625Z,57.20
2018-07-10T09:26:14.695Z,54.20
2018-07-10T09:28:47.336Z,59.50
2018-07-10T09:31:19.057Z,58.90
2018-07-10T09:33:51.957Z,54.40
2018-07-10T09:36:24.500Z,55.10
2018-07-10T09:38:56.390Z,55.70
2018-07-10T09:41:30.538Z,55.50
2018-07-10T09:44:03.566Z,56.70
2018-07-10T09:46:36.642Z,56.90
2018-07-10T09:49:08.154Z,57.60
2018-07-10T09:51:42.337Z,58.20
2018-07-10T09:54:15.090Z,57.50
2018-07-10T09:56:48.905Z,57.80
2018-07-10T09:59:21.680Z,55.60
2018-07-10T10:02:00.265Z,58.70
2018-07-10T10:04:33.440Z,56.20
2018-07-10T10:07:05.038Z,55.30
2018-07-10T10:09:38.965Z,51.30
2018-07-10T10:12:11.470Z,51.50
2018-07-10T10:14:45.255Z,53.60
2018-07-10T10:17:18.587Z,54.30
2018-07-10T10:19:52.634Z,54.10
2018-07-10T10:22:24.689Z,54.30
2018-07-10T10:24:57.636Z,53.80
2018-07-10T10:27:31.231Z,53.80
2018-07-10T10:30:04.848Z,54.10
2018-07-10T10:32:37.675Z,53.30
2018-07-10T10:35:10.309Z,53.90
2018-07-10T10:37:42.927Z,52.60
2018-07-10T10:40:18.299Z,54.10
2018-07-10T10:42:51.277Z,53.90
2018-07-10T10:45:24.317Z,55.30
2018-07-10T10:51:24.057Z,56.10
2018-07-10T10:53:55.939Z,54.90
2018-07-10T10:56:30.137Z,57.30
2018-07-10T10:59:03.744Z,55.90
2018-07-10T11:01:36.621Z,54.50
2018-07-10T11:09:14.689Z,56.40
2018-07-10T11:11:47.609Z,55.50
2018-07-10T11:14:19.101Z,55.40
2018-07-10T11:16:52.421Z,56.00
2018-07-10T11:19:41.360Z,56.50
2018-07-10T11:22:18.843Z,56.50
2018-07-10T11:25:13.924Z,53.90
2018-07-10T11:28:08.475Z,54.00
2018-07-10T11:30:41.216Z,53.70
2018-07-10T11:33:13.011Z,54.30
2018-07-10T11:38:17.720Z,55.90
2018-07-10T11:40:51.997Z,55.30
2018-07-10T11:43:23.883Z,54.80
2018-07-10T11:45:56.410Z,54.40
2018-07-10T11:48:29.817Z,52.90
2018-07-10T11:51:03.087Z,53.00
2018-07-10T11:53:34.988Z,54.70
2018-07-10T11:56:23.283Z,53.80
2018-07-10T11:58:59.041Z,54.00
2018-07-10T12:01:33.656Z,55.30
2018-07-10T12:04:05.985Z,54.90
2018-07-10T12:06:52.205Z,51.80
2018-07-10T12:09:23.664Z,51.90
2018-07-10T12:11:57.625Z,50.50
2018-07-10T12:14:29.785Z,52.70
2018-07-10T12:17:01.674Z,50.30
2018-07-10T12:19:34.406Z,53.10
2018-07-10T12:22:10.304Z,53.20
2018-07-10T12:24:49.006Z,52.00
2018-07-10T12:30:30.409Z,53.00
2018-07-10T12:36:06.837Z,52.50
2018-07-10T12:38:38.285Z,53.20
2018-07-10T12:41:11.537Z,53.40
2018-07-10T12:43:43.390Z,51.80
2018-07-10T12:48:47.439Z,50.70
2018-07-10T12:53:51.988Z,52.30
2018-07-10T12:56:23.588Z,51.20
2018-07-10T12:58:58.240Z,53.40
2018-07-10T13:04:02.861Z,53.90
2018-07-10T13:06:34.465Z,53.80
2018-07-10T13:09:10.567Z,50.40
2018-07-10T13:11:42.689Z,51.90
2018-07-10T13:14:14.449Z,53.70
2018-07-10T13:16:46.378Z,54.70
2018-07-10T13:19:19.442Z,55.80
2018-07-10T13:21:54.199Z,56.00
2018-07-10T13:24:25.909Z,53.70
2018-07-10T13:26:58.257Z,52.90
2018-07-10T13:29:30.082Z,52.20
2018-07-10T13:32:02.184Z,53.50
2018-07-10T13:34:33.770Z,53.30
2018-07-10T13:37:06.111Z,53.40
2018-07-10T13:39:37.789Z,52.40
2018-07-10T13:44:40.369Z,56.20
2018-07-10T13:50:39.000Z,56.00
2018-07-10T14:00:31.081Z,57.30
2018-07-10T14:03:02.452Z,56.20
2018-07-10T14:05:34.083Z,58.00
2018-07-10T14:08:05.451Z,58.20
2018-07-10T14:10:37.126Z,60.00
2018-07-10T14:13:08.737Z,58.60
2018-07-10T14:15:40.412Z,59.50
2018-07-10T14:18:12.200Z,61.00
2018-07-10T14:20:54.652Z,60.50
2018-07-10T14:23:26.600Z,60.30
2018-07-10T14:25:58.761Z,61.60
2018-07-10T14:28:30.619Z,61.10
2018-07-10T14:31:02.771Z,61.30
2018-07-10T19:54:27.956Z,79.00
2018-07-10T19:57:00.161Z,79.20
2018-07-10T19:59:31.863Z,79.00
2018-07-10T20:02:04.658Z,78.50
2018-07-10T20:05:12.822Z,78.70
2018-07-10T20:07:58.300Z,77.20
2018-07-10T20:10:39.753Z,77.60
2018-07-10T20:13:29.117Z,75.10
2018-07-10T20:16:10.204Z,74.40
2018-07-10T20:18:57.665Z,72.90
2018-07-10T20:21:44.754Z,72.20
2018-07-10T20:24:20.045Z,72.50
2018-07-10T20:27:36.170Z,71.70
2018-07-10T20:30:52.680Z,73.40
2018-07-10T20:35:36.514Z,75.90
2018-07-10T20:38:08.253Z,77.00
2018-07-10T20:40:42.832Z,78.30
2018-07-10T20:45:52.772Z,78.50
2018-07-10T20:51:16.382Z,78.10
2018-07-10T20:54:14.894Z,77.60
2018-07-10T20:57:13.755Z,77.30
2018-07-10T20:59:48.708Z,77.50
2018-07-10T21:02:35.973Z,77.50
2018-07-10T21:05:14.840Z,77.00
2018-07-10T21:08:00.043Z,77.20
2018-07-10T21:10:50.761Z,77.10
2018-07-10T21:18:03.074Z,78.00
2018-07-10T21:23:28.253Z,79.70
2018-07-10T21:26:06.596Z,79.20
2018-07-10T21:29:01.414Z,81.90
2018-07-10T21:31:47.488Z,82.60
2018-07-10T21:34:54.280Z,82.60
2018-07-10T21:38:06.412Z,82.90
2018-07-10T21:41:01.124Z,82.00
2018-07-10T21:43:52.189Z,86.60
2018-07-10T21:49:30.302Z,90.10
2018-07-10T21:52:01.782Z,90.70
2018-07-10T21:54:33.290Z,90.50
2018-07-10T21:57:05.012Z,90.80
2018-07-10T21:59:40.871Z,91.00
2018-07-10T22:02:12.816Z,91.10
2018-07-10T22:04:45.261Z,90.80
2018-07-10T22:07:19.950Z,90.80
2018-07-10T22:09:53.360Z,91.20
2018-07-10T22:15:55.705Z,91.20
2018-07-10T22:18:27.344Z,91.40
2018-07-10T22:20:59.178Z,91.50
2018-07-10T22:23:35.673Z,91.40
2018-07-10T22:29:30.501Z,91.30
2018-07-10T22:32:07.170Z,91.50
2018-07-10T22:34:45.130Z,91.70
2018-07-10T22:37:19.533Z,91.50
2018-07-10T22:39:51.204Z,91.70
2018-07-10T22:42:22.802Z,91.80
2018-07-10T22:45:15.299Z,91.60
2018-07-10T22:47:47.237Z,91.50
2018-07-10T22:50:24.398Z,91.50
2018-07-10T22:53:01.722Z,91.70
2018-07-10T22:58:10.921Z,91.80
2018-07-10T23:03:26.803Z,92.10
2018-07-10T23:05:58.030Z,92.50
2018-07-10T23:08:34.787Z,92.70
2018-07-10T23:11:07.111Z,92.80
2018-07-10T23:13:42.528Z,93.30
2018-07-10T23:16:14.379Z,93.60
2018-07-10T23:18:47.175Z,93.80
2018-07-10T23:21:19.641Z,94.10
2018-07-10T23:23:50.950Z,94.30
2018-07-10T23:26:22.410Z,94.40
2018-07-10T23:28:55.043Z,94.50
2018-07-10T23:31:31.188Z,94.90
2018-07-10T23:34:19.414Z,95.20
2018-07-10T23:36:57.138Z,95.60
2018-07-10T23:40:06.035Z,95.80
2018-07-10T23:45:19.326Z,96.10
2018-07-10T23:47:55.167Z,96.40
2018-07-10T23:50:31.447Z,96.50
2018-07-10T23:53:29.886Z,96.90
2018-07-10T23:56:00.913Z,97.10
2018-07-10T23:58:32.561Z,97.10
